Time;durP1;ratioP1;P1;durP2;ratioP2;P2;SDS_P1;SDS_P2;PMS_P1;PMS_P2;Temp;Humidity;BMP_temperature;BMP_pressure;BME280_temperature;BME280_humidity;BME280_pressure;Samples;Min_cycle;Max_cycle;Signal;HPM_P1;HPM_P2
2023/07/26 00:01:48;;;;;;;20.83;8.77;;;20.10;99.90;;;;;;5136225;27;20073;-57
2023/07/26 00:04:14;;;;;;;21.08;8.98;;;20.10;99.90;;;;;;5135977;27;20087;-57
2023/07/26 00:06:40;;;;;;;19.25;8.40;;;20.10;99.90;;;;;;5136028;27;20050;-57
2023/07/26 00:09:08;;;;;;;15.50;8.15;;;20.10;99.90;;;;;;5135790;27;20059;-57
2023/07/26 00:11:35;;;;;;;20.45;8.13;;;20.00;99.90;;;;;;5135689;27;20376;-57
2023/07/26 00:14:03;;;;;;;15.32;7.78;;;20.10;99.90;;;;;;5135834;27;20045;-57
2023/07/26 00:16:30;;;;;;;14.45;7.53;;;20.00;99.90;;;;;;5136159;27;20024;-57
2023/07/26 00:18:57;;;;;;;18.05;8.45;;;20.00;99.90;;;;;;5135762;27;20038;-57
2023/07/26 00:21:23;;;;;;;16.73;8.32;;;20.00;99.90;;;;;;5129109;27;20050;-57
2023/07/26 00:23:49;;;;;;;21.20;8.13;;;20.00;99.90;;;;;;5115030;28;20396;-57
2023/07/26 00:26:15;;;;;;;16.67;7.88;;;20.00;99.90;;;;;;5115271;28;20354;-57
2023/07/26 00:28:41;;;;;;;21.52;8.18;;;20.00;99.90;;;;;;5115277;28;20114;-57
2023/07/26 00:31:06;;;;;;;14.93;7.95;;;19.90;99.90;;;;;;5114845;28;20031;-57
2023/07/26 00:33:32;;;;;;;18.10;9.55;;;19.90;99.90;;;;;;5096054;28;20070;-57
2023/07/26 00:35:58;;;;;;;14.75;8.05;;;19.90;99.90;;;;;;5115417;28;20032;-57
2023/07/26 00:38:24;;;;;;;20.15;7.43;;;19.90;99.90;;;;;;5096831;28;20024;-57
2023/07/26 00:40:51;;;;;;;14.57;7.57;;;19.90;99.90;;;;;;5096662;28;20110;-57
2023/07/26 00:43:17;;;;;;;18.30;7.22;;;19.80;99.90;;;;;;5114827;28;20062;-57
2023/07/26 00:45:43;;;;;;;15.90;7.72;;;19.80;99.90;;;;;;5114855;28;20080;-57
2023/07/26 00:48:11;;;;;;;17.63;9.38;;;19.90;99.90;;;;;;5096837;28;20058;-57
2023/07/26 00:50:40;;;;;;;23.73;9.57;;;20.00;99.90;;;;;;5114959;28;20063;-57
2023/07/26 00:53:07;;;;;;;19.80;8.03;;;20.00;99.90;;;;;;5114676;28;20027;-57
2023/07/26 00:55:35;;;;;;;20.13;8.45;;;20.00;99.90;;;;;;5114748;28;20457;-57
2023/07/26 00:58:01;;;;;;;20.25;7.93;;;20.00;99.90;;;;;;5114784;28;20077;-57
2023/07/26 01:00:27;;;;;;;19.95;8.23;;;20.00;99.90;;;;;;5114730;28;20031;-57
2023/07/26 01:02:53;;;;;;;16.95;8.02;;;20.00;99.90;;;;;;5114745;28;20468;-57
2023/07/26 01:05:19;;;;;;;23.95;8.68;;;20.00;99.90;;;;;;5114684;28;20023;-57
2023/07/26 01:08:11;;;;;;;14.25;7.15;;;20.00;99.90;;;;;;5114682;28;20473;-57
2023/07/26 01:10:53;;;;;;;16.50;7.20;;;20.20;99.90;;;;;;5114532;28;20024;-57
2023/07/26 01:13:20;;;;;;;18.08;6.47;;;20.30;99.90;;;;;;5096302;28;20023;-57
2023/07/26 01:15:47;;;;;;;14.10;6.15;;;20.30;99.90;;;;;;5114711;28;20027;-57
2023/07/26 01:18:15;;;;;;;13.80;6.78;;;20.30;99.90;;;;;;5114741;28;20103;-57
2023/07/26 01:20:42;;;;;;;11.98;5.65;;;20.40;99.90;;;;;;5114991;28;20107;-57
2023/07/26 01:23:08;;;;;;;8.02;4.18;;;20.30;99.90;;;;;;5134895;27;20428;-57
2023/07/26 01:25:34;;;;;;;10.45;4.20;;;20.50;99.90;;;;;;5135135;27;20488;-57
2023/07/26 01:28:02;;;;;;;9.88;3.97;;;20.50;99.90;;;;;;5116518;28;20035;-57
2023/07/26 01:30:30;;;;;;;10.20;4.00;;;20.70;99.90;;;;;;5135086;27;20038;-57
2023/07/26 01:33:01;;;;;;;10.32;4.30;;;20.70;99.90;;;;;;5134856;28;20035;-57
2023/07/26 01:35:29;;;;;;;9.75;4.40;;;20.70;99.90;;;;;;5134883;28;20031;-57
2023/07/26 01:37:56;;;;;;;8.93;3.55;;;20.70;99.90;;;;;;5134875;27;20079;-57
2023/07/26 01:40:22;;;;;;;8.38;4.03;;;20.60;99.90;;;;;;5116511;28;20023;-57
2023/07/26 01:42:49;;;;;;;7.72;3.33;;;20.70;99.90;;;;;;5135083;27;20026;-57
2023/07/26 01:45:16;;;;;;;7.72;3.05;;;20.70;99.90;;;;;;5138650;27;20030;-57
2023/07/26 01:47:41;;;;;;;7.07;3.40;;;20.80;99.90;;;;;;5120306;27;20030;-57
2023/07/26 01:50:08;;;;;;;6.78;3.55;;;20.70;99.90;;;;;;5138439;27;20468;-57
2023/07/26 01:52:34;;;;;;;8.77;3.45;;;20.80;99.90;;;;;;5138486;27;20028;-57
2023/07/26 01:55:01;;;;;;;9.82;3.40;;;20.90;99.90;;;;;;5138470;27;20030;-57
2023/07/26 01:57:27;;;;;;;7.00;2.92;;;21.00;99.90;;;;;;5138633;27;20020;-57
2023/07/26 01:59:53;;;;;;;6.18;3.45;;;20.90;99.90;;;;;;5119923;27;20024;-57
2023/07/26 02:02:19;;;;;;;5.75;3.40;;;20.80;99.90;;;;;;5120016;27;20051;-57
2023/07/26 02:04:46;;;;;;;8.38;3.58;;;20.80;99.90;;;;;;5119847;27;20088;-57
2023/07/26 02:07:13;;;;;;;6.57;3.10;;;20.90;99.90;;;;;;5138298;27;20092;-57
2023/07/26 02:09:38;;;;;;;6.22;2.97;;;20.80;99.90;;;;;;5119666;27;20434;-57
2023/07/26 02:12:05;;;;;;;7.32;3.05;;;20.90;99.90;;;;;;5119659;27;20033;-57
2023/07/26 02:14:31;;;;;;;10.10;3.33;;;20.80;99.90;;;;;;5137962;27;20027;-57
2023/07/26 02:16:57;;;;;;;16.65;4.15;;;20.70;99.90;;;;;;5138049;27;20393;-56
2023/07/26 02:19:23;;;;;;;7.68;3.22;;;20.80;99.90;;;;;;5137929;27;20031;-57
2023/07/26 02:21:49;;;;;;;11.57;3.72;;;20.80;99.90;;;;;;5127840;27;20091;-57
2023/07/26 02:24:15;;;;;;;8.05;2.90;;;20.70;99.90;;;;;;5095496;28;20051;-56
2023/07/26 02:26:40;;;;;;;10.93;4.15;;;20.60;99.90;;;;;;5097059;28;20040;-58
2023/07/26 02:29:09;;;;;;;6.53;3.20;;;20.60;99.90;;;;;;5095649;28;20063;-57
2023/07/26 02:31:34;;;;;;;5.38;3.00;;;20.40;99.90;;;;;;5095447;28;20036;-57
2023/07/26 02:34:00;;;;;;;6.70;2.92;;;20.30;99.90;;;;;;5095453;28;20032;-57
2023/07/26 02:36:26;;;;;;;6.93;2.70;;;20.20;99.90;;;;;;5096861;28;20024;-57
2023/07/26 02:38:52;;;;;;;6.88;3.35;;;20.10;99.90;;;;;;5095547;28;20031;-57
2023/07/26 02:41:18;;;;;;;5.18;2.97;;;20.20;99.90;;;;;;5096747;28;20355;-57
2023/07/26 02:43:44;;;;;;;4.82;3.08;;;20.30;99.90;;;;;;5096713;28;20378;-57
2023/07/26 02:46:10;;;;;;;9.57;3.67;;;20.30;99.90;;;;;;5096568;28;20028;-57
2023/07/26 02:48:36;;;;;;;12.65;3.28;;;20.10;99.90;;;;;;5096394;28;20541;-57
2023/07/26 02:51:02;;;;;;;8.88;3.25;;;20.10;99.90;;;;;;5096574;28;20035;-57
2023/07/26 02:53:28;;;;;;;4.50;2.90;;;20.10;99.90;;;;;;5095131;28;20039;-57
2023/07/26 02:55:54;;;;;;;7.07;2.90;;;20.10;99.90;;;;;;5095628;28;20039;-57
2023/07/26 02:58:20;;;;;;;5.38;2.83;;;20.10;99.90;;;;;;5096274;28;20380;-57
2023/07/26 03:00:50;;;;;;;7.30;3.10;;;20.00;99.90;;;;;;5095029;28;20030;-57
2023/07/26 03:03:16;;;;;;;4.57;2.83;;;19.90;99.90;;;;;;5094921;28;20151;-57
2023/07/26 03:05:42;;;;;;;4.43;2.80;;;19.90;99.90;;;;;;5096403;28;20063;-57
2023/07/26 03:08:08;;;;;;;5.60;2.72;;;20.00;99.90;;;;;;5096075;28;20032;-57
2023/07/26 03:10:34;;;;;;;6.70;3.03;;;19.90;99.90;;;;;;5096097;28;20024;-57
2023/07/26 03:13:00;;;;;;;5.30;2.42;;;19.90;99.90;;;;;;5094783;28;20036;-57
2023/07/26 03:15:26;;;;;;;7.40;2.90;;;19.90;99.90;;;;;;5094773;28;20039;-57
2023/07/26 03:17:52;;;;;;;4.53;2.70;;;19.90;99.90;;;;;;5095876;28;20099;-57
2023/07/26 03:20:18;;;;;;;3.22;2.40;;;19.90;99.90;;;;;;5095869;28;20024;-57
2023/07/26 03:22:43;;;;;;;4.97;2.53;;;19.90;99.90;;;;;;5115046;27;20027;-57
2023/07/26 03:25:09;;;;;;;3.65;2.38;;;19.90;99.90;;;;;;5136613;27;20055;-57
2023/07/26 03:27:35;;;;;;;3.45;2.20;;;19.80;99.90;;;;;;5136707;27;20031;-57
2023/07/26 03:30:01;;;;;;;5.47;2.40;;;19.90;99.90;;;;;;5136677;27;20027;-57
2023/07/26 03:32:27;;;;;;;5.65;2.63;;;19.90;99.90;;;;;;5117954;27;20057;-57
2023/07/26 03:34:53;;;;;;;3.72;2.50;;;19.90;99.90;;;;;;5136359;27;20031;-57
2023/07/26 03:37:19;;;;;;;7.45;2.75;;;19.80;99.90;;;;;;5136472;27;20106;-57
2023/07/26 03:39:44;;;;;;;6.07;2.92;;;19.70;99.90;;;;;;5136399;27;20075;-57
2023/07/26 03:42:10;;;;;;;3.95;2.78;;;19.70;99.90;;;;;;5136855;27;20031;-57
2023/07/26 03:44:36;;;;;;;6.75;2.75;;;19.60;99.90;;;;;;5117884;27;20113;-57
2023/07/26 03:47:02;;;;;;;4.60;2.78;;;19.70;99.90;;;;;;5136176;27;20532;-57
2023/07/26 03:49:30;;;;;;;5.03;2.40;;;19.70;99.90;;;;;;5136370;27;20031;-57
2023/07/26 03:51:57;;;;;;;4.82;3.10;;;19.70;99.90;;;;;;5136282;27;20038;-57
2023/07/26 03:54:23;;;;;;;4.10;2.60;;;19.80;99.90;;;;;;5136031;27;20031;-57
2023/07/26 03:56:48;;;;;;;4.55;2.83;;;19.80;99.90;;;;;;5117543;27;20035;-57
2023/07/26 03:59:14;;;;;;;4.18;2.42;;;19.80;99.90;;;;;;5136055;27;20023;-57
2023/07/26 04:01:40;;;;;;;7.60;2.65;;;19.80;99.90;;;;;;5117631;27;20023;-57
2023/07/26 04:04:06;;;;;;;5.63;2.75;;;19.80;99.90;;;;;;5135918;27;20046;-57
2023/07/26 04:06:32;;;;;;;3.58;2.28;;;19.90;99.90;;;;;;5135143;27;20035;-57
2023/07/26 04:08:58;;;;;;;3.15;2.25;;;19.70;99.90;;;;;;5117296;27;20023;-57
2023/07/26 04:11:24;;;;;;;9.52;2.60;;;19.70;99.90;;;;;;5135695;27;20110;-57
2023/07/26 04:13:50;;;;;;;6.03;2.20;;;19.80;99.90;;;;;;5135797;27;20026;-57
2023/07/26 04:16:20;;;;;;;10.02;2.70;;;19.80;99.90;;;;;;5135756;27;20451;-57
2023/07/26 04:18:46;;;;;;;6.93;2.53;;;19.80;99.90;;;;;;5135780;27;20107;-57
2023/07/26 04:21:17;;;;;;;4.13;2.70;;;19.80;99.90;;;;;;5130821;27;20110;-57
2023/07/26 04:23:44;;;;;;;3.15;2.00;;;19.80;99.90;;;;;;5115010;28;20051;-57
2023/07/26 04:26:10;;;;;;;6.97;2.38;;;19.80;99.90;;;;;;5115069;28;20070;-57
2023/07/26 04:28:36;;;;;;;5.97;2.47;;;19.80;99.90;;;;;;5115002;28;20055;-57
2023/07/26 04:31:03;;;;;;;4.32;2.42;;;19.80;99.90;;;;;;5115080;28;20415;-57
2023/07/26 04:33:29;;;;;;;4.45;2.60;;;19.80;99.90;;;;;;5114826;28;20027;-57
2023/07/26 04:35:57;;;;;;;5.68;2.53;;;19.80;99.90;;;;;;5114964;28;20028;-57
2023/07/26 04:38:23;;;;;;;5.57;2.65;;;19.90;99.90;;;;;;5114966;28;20036;-57
2023/07/26 04:40:49;;;;;;;4.63;2.40;;;19.90;99.90;;;;;;5114939;28;20030;-57
2023/07/26 04:43:21;;;;;;;3.72;2.30;;;19.90;99.90;;;;;;5114677;28;20031;-57
2023/07/26 04:45:51;;;;;;;3.33;2.28;;;19.90;99.90;;;;;;5096689;28;20024;-57
2023/07/26 04:48:18;;;;;;;4.43;2.35;;;19.90;99.90;;;;;;5114924;28;20028;-57
2023/07/26 04:50:46;;;;;;;3.58;2.50;;;19.90;99.90;;;;;;5114890;28;20465;-57
2023/07/26 04:53:11;;;;;;;3.40;1.95;;;20.00;99.90;;;;;;5114795;28;20035;-57
2023/07/26 04:55:50;;;;;;;2.92;1.83;;;19.90;99.90;;;;;;5114744;28;20482;-57
2023/07/26 04:58:16;;;;;;;3.67;2.10;;;20.00;99.90;;;;;;5114842;28;20070;-57
2023/07/26 05:00:43;;;;;;;5.25;2.13;;;20.00;99.90;;;;;;5114727;28;20472;-57
2023/07/26 05:03:10;;;;;;;5.05;2.60;;;20.00;99.90;;;;;;5114795;28;20544;-57
2023/07/26 05:05:37;;;;;;;6.10;2.13;;;20.10;99.90;;;;;;5114730;28;20447;-57
2023/07/26 05:08:04;;;;;;;8.93;2.92;;;20.00;99.90;;;;;;5114499;28;20028;-57
2023/07/26 05:10:30;;;;;;;4.90;2.40;;;20.00;99.90;;;;;;5114494;28;20504;-57
2023/07/26 05:12:57;;;;;;;4.47;2.15;;;20.00;99.90;;;;;;5115092;28;20077;-57
2023/07/26 05:15:23;;;;;;;3.50;2.25;;;20.00;99.90;;;;;;5115292;28;20058;-57
2023/07/26 05:17:50;;;;;;;14.00;3.08;;;19.90;99.90;;;;;;5115602;28;20015;-56
2023/07/26 05:20:17;;;;;;;13.43;4.00;;;20.10;99.90;;;;;;5118737;28;20031;-57
2023/07/26 05:22:42;;;;;;;9.07;2.70;;;20.10;99.90;;;;;;5134710;27;20525;-57
2023/07/26 05:25:09;;;;;;;5.53;2.20;;;20.20;99.90;;;;;;5119277;28;20036;-57
2023/07/26 05:27:35;;;;;;;11.27;3.38;;;20.10;99.90;;;;;;5119315;28;20396;-56
2023/07/26 05:30:01;;;;;;;13.40;4.13;;;20.20;99.90;;;;;;5117377;28;20046;-57
2023/07/26 05:32:27;;;;;;;13.50;3.67;;;20.20;99.90;;;;;;5117909;28;20028;-57
2023/07/26 05:34:57;;;;;;;12.15;3.03;;;20.30;99.90;;;;;;5118331;28;20458;-57
2023/07/26 05:37:24;;;;;;;9.20;3.30;;;20.40;99.90;;;;;;5117865;28;20047;-57
2023/07/26 05:39:51;;;;;;;11.43;3.45;;;20.40;99.90;;;;;;5099895;28;20506;-57
2023/07/26 05:42:17;;;;;;;8.50;3.15;;;20.40;99.90;;;;;;5099789;28;20035;-57
2023/07/26 05:44:43;;;;;;;7.80;2.67;;;20.50;99.90;;;;;;5114392;28;20032;-57
2023/07/26 05:47:14;;;;;;;5.72;2.70;;;20.50;99.90;;;;;;5117719;28;20548;-57
2023/07/26 05:49:44;;;;;;;7.65;2.45;;;20.60;99.90;;;;;;5117833;28;20027;-57
2023/07/26 05:52:10;;;;;;;6.80;2.40;;;20.70;99.90;;;;;;5118036;28;20027;-57
2023/07/26 05:54:36;;;;;;;9.38;3.50;;;20.70;99.90;;;;;;5117873;28;20031;-57
2023/07/26 05:57:03;;;;;;;11.23;3.50;;;20.70;99.90;;;;;;5117716;28;20039;-57
2023/07/26 05:59:28;;;;;;;7.40;3.63;;;20.70;99.90;;;;;;5117522;28;20362;-57
2023/07/26 06:01:54;;;;;;;6.82;3.10;;;20.70;99.90;;;;;;5117752;28;20080;-57
2023/07/26 06:04:20;;;;;;;15.93;4.18;;;20.70;99.90;;;;;;5117622;28;20031;-57
2023/07/26 06:06:46;;;;;;;4.38;2.35;;;20.70;99.90;;;;;;5117408;28;20032;-57
2023/07/26 06:09:12;;;;;;;7.20;3.15;;;20.60;99.90;;;;;;5117513;28;20028;-57
2023/07/26 06:11:39;;;;;;;11.70;3.42;;;20.60;99.90;;;;;;5117316;28;20034;-57
2023/07/26 06:14:05;;;;;;;11.82;3.38;;;20.60;99.90;;;;;;5117232;28;20032;-57
2023/07/26 06:16:31;;;;;;;9.93;3.35;;;20.60;99.90;;;;;;5117440;28;20059;-57
2023/07/26 06:18:57;;;;;;;7.15;3.60;;;20.50;99.90;;;;;;5117034;28;20513;-57
2023/07/26 06:21:26;;;;;;;5.85;2.90;;;20.60;99.90;;;;;;5110268;28;20059;-57
2023/07/26 06:23:52;;;;;;;17.85;4.38;;;20.60;99.90;;;;;;5128182;27;20081;-57
2023/07/26 06:26:18;;;;;;;10.38;3.97;;;20.50;99.90;;;;;;5137829;27;20051;-57
2023/07/26 06:28:44;;;;;;;7.35;2.92;;;20.50;99.90;;;;;;5137840;27;20054;-57
2023/07/26 06:31:11;;;;;;;11.55;3.17;;;20.60;99.90;;;;;;5136496;27;20023;-57
2023/07/26 06:33:40;;;;;;;5.15;2.30;;;20.60;99.90;;;;;;5137318;27;20041;-57
2023/07/26 06:36:09;;;;;;;8.63;3.15;;;20.60;99.90;;;;;;5152957;27;20023;-57
2023/07/26 06:38:35;;;;;;;7.88;3.33;;;20.50;99.90;;;;;;5147827;27;20031;-57
2023/07/26 06:41:01;;;;;;;8.05;2.95;;;20.60;99.90;;;;;;5137377;27;20453;-57
2023/07/26 06:43:27;;;;;;;12.32;3.75;;;20.50;99.90;;;;;;5137467;27;20019;-57
2023/07/26 06:45:53;;;;;;;5.93;2.92;;;20.50;99.90;;;;;;5137166;27;20087;-57
2023/07/26 06:48:19;;;;;;;11.05;3.67;;;20.50;99.90;;;;;;5137087;27;20468;-58
2023/07/26 06:50:45;;;;;;;7.85;3.17;;;20.50;99.90;;;;;;5137009;27;20461;-58
2023/07/26 06:53:12;;;;;;;5.10;3.33;;;20.40;99.90;;;;;;5137261;27;20039;-57
2023/07/26 06:55:38;;;;;;;8.27;3.42;;;20.40;99.90;;;;;;5136962;27;20050;-57
2023/07/26 06:58:05;;;;;;;10.48;3.70;;;20.50;99.90;;;;;;5137902;27;20417;-57
2023/07/26 07:00:31;;;;;;;9.55;3.78;;;20.50;99.90;;;;;;5137883;27;20452;-57
2023/07/26 07:03:02;;;;;;;10.25;3.67;;;20.40;99.90;;;;;;5137744;27;20023;-58
2023/07/26 07:05:28;;;;;;;;;;;20.50;99.90;;;;;;5138252;27;20080;-57
2023/07/26 07:07:54;;;;;;;10.43;3.30;;;20.40;99.90;;;;;;5137591;27;20003;-57
2023/07/26 07:10:21;;;;;;;11.55;3.30;;;20.40;99.90;;;;;;5137526;27;20480;-57
2023/07/26 07:12:46;;;;;;;7.28;3.78;;;20.30;99.90;;;;;;5137623;27;20058;-57
2023/07/26 07:15:13;;;;;;;7.15;3.22;;;20.40;99.90;;;;;;5137476;27;20070;-57
2023/07/26 07:17:39;;;;;;;7.93;4.05;;;20.50;99.90;;;;;;5137536;27;20023;-57
2023/07/26 07:20:07;;;;;;;13.68;4.30;;;20.50;99.90;;;;;;5137538;27;20027;-57
2023/07/26 07:22:34;;;;;;;11.02;4.45;;;20.40;99.90;;;;;;5137085;27;20023;-57
2023/07/26 07:25:00;;;;;;;10.20;4.25;;;20.40;99.90;;;;;;5137412;27;20035;-57
2023/07/26 07:27:26;;;;;;;18.65;6.72;;;20.40;99.90;;;;;;5137318;27;20736;-57
2023/07/26 07:29:52;;;;;;;33.80;9.85;;;20.50;99.90;;;;;;5137151;27;20023;-57
2023/07/26 07:32:18;;;;;;;65.25;15.75;;;20.60;99.90;;;;;;5137154;27;20478;-57
2023/07/26 07:34:45;;;;;;;63.65;18.92;;;20.60;99.90;;;;;;5137254;27;20031;-57
2023/07/26 07:37:11;;;;;;;41.00;10.75;;;20.50;99.90;;;;;;5137100;27;20027;-57
2023/07/26 07:39:37;;;;;;;42.42;10.77;;;20.70;99.90;;;;;;5137045;27;20053;-57
2023/07/26 07:42:03;;;;;;;8.15;5.03;;;20.70;99.90;;;;;;5136857;27;20034;-57
2023/07/26 07:44:29;;;;;;;11.05;5.47;;;20.70;99.90;;;;;;5131292;27;20030;-57
2023/07/26 07:46:56;;;;;;;13.52;5.30;;;20.70;99.90;;;;;;5116341;28;20469;-57
2023/07/26 07:49:22;;;;;;;10.57;5.60;;;20.70;99.90;;;;;;5116412;28;20031;-57
2023/07/26 07:51:48;;;;;;;11.52;4.90;;;20.70;99.90;;;;;;5116246;28;20030;-58
2023/07/26 07:54:14;;;;;;;9.80;4.90;;;20.70;99.90;;;;;;5116330;28;20091;-58
2023/07/26 07:56:40;;;;;;;13.98;5.10;;;20.70;99.90;;;;;;5115358;28;20115;-58
2023/07/26 07:59:12;;;;;;;14.18;5.70;;;20.80;99.90;;;;;;5115198;28;20024;-58
2023/07/26 08:01:38;;;;;;;15.55;5.65;;;20.80;99.90;;;;;;5115470;28;20027;-58
2023/07/26 08:04:04;;;;;;;7.82;3.67;;;20.70;99.90;;;;;;5115329;28;20091;-58
2023/07/26 08:06:32;;;;;;;10.05;4.47;;;20.70;99.90;;;;;;5115104;28;20020;-58
2023/07/26 08:08:58;;;;;;;10.00;4.35;;;20.70;99.90;;;;;;5115282;28;20031;-58
2023/07/26 08:11:48;;;;;;;10.63;3.42;;;20.60;99.90;;;;;;5114972;28;20034;-58
2023/07/26 08:14:14;;;;;;;7.60;4.10;;;20.60;99.90;;;;;;5115051;28;20091;-58
2023/07/26 08:16:40;;;;;;;7.20;4.22;;;20.60;99.90;;;;;;5115345;28;20074;-58
2023/07/26 08:19:06;;;;;;;11.50;4.20;;;20.40;99.90;;;;;;5115117;28;20023;-58
2023/07/26 08:21:32;;;;;;;11.85;4.45;;;20.40;99.90;;;;;;5107241;28;20008;-58
2023/07/26 08:23:58;;;;;;;7.93;4.20;;;20.30;99.90;;;;;;5106287;28;20119;-58
2023/07/26 08:26:29;;;;;;;6.55;3.50;;;20.30;99.90;;;;;;5095864;28;20046;-57
2023/07/26 08:28:55;;;;;;;8.18;3.75;;;20.60;99.90;;;;;;5096154;28;20401;-58
2023/07/26 08:31:24;;;;;;;10.27;4.78;;;20.70;99.90;;;;;;5114618;28;20039;-57
2023/07/26 08:33:53;;;;;;;7.32;3.78;;;20.70;99.90;;;;;;5114622;28;20031;-58
2023/07/26 08:36:19;;;;;;;4.07;2.85;;;20.80;99.90;;;;;;5096451;28;20113;-57
2023/07/26 08:38:46;;;;;;;9.10;3.58;;;20.90;99.90;;;;;;5114816;28;20031;-57
2023/07/26 08:41:12;;;;;;;11.82;3.70;;;21.00;99.90;;;;;;5114955;28;20023;-57
2023/07/26 08:43:39;;;;;;;8.07;3.15;;;20.90;99.90;;;;;;5114523;28;20091;-58
2023/07/26 08:46:09;;;;;;;10.15;3.60;;;21.00;99.90;;;;;;5114609;28;20111;-57
2023/07/26 08:48:37;;;;;;;21.67;5.53;;;21.00;99.90;;;;;;5114821;28;20027;-57
2023/07/26 08:51:05;;;;;;;7.38;3.55;;;21.20;99.90;;;;;;5114518;28;20032;-57
2023/07/26 08:53:31;;;;;;;10.93;4.30;;;21.40;99.90;;;;;;5116457;28;20181;-58
2023/07/26 08:55:57;;;;;;;10.38;3.78;;;21.40;99.90;;;;;;5100376;28;20063;-57
2023/07/26 08:58:23;;;;;;;17.77;4.35;;;21.60;99.90;;;;;;5118730;28;20027;-57
2023/07/26 09:00:49;;;;;;;11.95;4.15;;;21.60;99.90;;;;;;5118969;28;20015;-57
2023/07/26 09:03:16;;;;;;;5.38;2.92;;;21.70;99.90;;;;;;5118833;28;20024;-57
2023/07/26 09:05:42;;;;;;;6.95;3.38;;;21.60;99.90;;;;;;5118692;28;20031;-57
2023/07/26 09:08:08;;;;;;;9.77;3.80;;;21.50;99.90;;;;;;5118456;28;20224;-57
2023/07/26 09:10:40;;;;;;;7.93;3.20;;;21.60;99.90;;;;;;5118674;28;20028;-57
2023/07/26 09:13:12;;;;;;;10.13;3.88;;;21.70;99.90;;;;;;5118261;28;20494;-57
2023/07/26 09:15:39;;;;;;;13.15;4.07;;;21.60;99.90;;;;;;5118905;28;20031;-57
2023/07/26 09:18:06;;;;;;;9.10;3.97;;;21.70;99.90;;;;;;5118560;28;20122;-57
2023/07/26 09:20:33;;;;;;;7.97;3.20;;;21.70;99.90;;;;;;5118337;28;20023;-57
2023/07/26 09:23:04;;;;;;;6.65;2.40;;;21.90;99.90;;;;;;5118043;28;20047;-57
2023/07/26 09:25:35;;;;;;;6.88;2.78;;;21.90;99.90;;;;;;5118417;28;20030;-57
2023/07/26 09:28:12;;;;;;;7.07;4.35;;;22.00;99.90;;;;;;5118390;28;20023;-57
2023/07/26 09:30:45;;;;;;;8.90;3.10;;;22.00;99.90;;;;;;5118166;28;20069;-57
2023/07/26 09:33:12;;;;;;;5.22;2.78;;;22.00;99.90;;;;;;5118149;28;20031;-57
2023/07/26 09:35:46;;;;;;;4.75;3.15;;;21.90;99.90;;;;;;5118009;28;20015;-57
2023/07/26 09:38:23;;;;;;;7.90;3.53;;;21.80;99.90;;;;;;5118460;28;20028;-57
2023/07/26 09:40:49;;;;;;;10.95;3.97;;;22.00;99.90;;;;;;5118199;28;20023;-57
2023/07/26 09:43:32;;;;;;;7.90;3.33;;;22.10;99.90;;;;;;5117743;28;20106;-57
2023/07/26 09:46:02;;;;;;;6.65;3.25;;;22.20;99.90;;;;;;5135633;27;20433;-57
2023/07/26 09:48:28;;;;;;;11.10;3.63;;;22.20;99.90;;;;;;5138655;27;20076;-57
2023/07/26 09:50:58;;;;;;;7.43;3.10;;;22.20;99.90;;;;;;5138617;27;20031;-57
2023/07/26 09:53:24;;;;;;;12.93;4.17;;;22.20;99.90;;;;;;5138211;27;20055;-57
2023/07/26 09:55:51;;;;;;;6.75;3.10;;;22.30;99.90;;;;;;5138293;27;20259;-57
2023/07/26 09:58:19;;;;;;;5.43;2.72;;;22.30;99.90;;;;;;5138453;27;20035;-57
2023/07/26 10:00:48;;;;;;;5.60;3.08;;;22.10;99.90;;;;;;5138285;27;20025;-57
2023/07/26 10:03:19;;;;;;;7.40;3.47;;;22.00;99.90;;;;;;5138372;27;20061;-57
2023/07/26 10:05:48;;;;;;;7.43;3.60;;;21.90;99.90;;;;;;5138276;27;20034;-57
2023/07/26 10:08:14;;;;;;;5.20;3.17;;;21.90;99.90;;;;;;5137865;27;20035;-57
2023/07/26 10:10:42;;;;;;;8.18;3.83;;;21.90;99.90;;;;;;5138126;27;20098;-57
2023/07/26 10:13:10;;;;;;;9.18;3.65;;;21.90;99.90;;;;;;5138028;27;20019;-57
2023/07/26 10:15:41;;;;;;;6.57;3.47;;;21.90;99.90;;;;;;5137924;27;20079;-57
2023/07/26 10:18:07;;;;;;;4.35;3.08;;;22.00;99.90;;;;;;5138147;27;20215;-57
2023/07/26 10:20:37;;;;;;;9.93;4.07;;;22.00;99.90;;;;;;5137738;27;20487;-57
2023/07/26 10:23:04;;;;;;;13.15;3.72;;;22.20;99.90;;;;;;5158326;27;20384;-58
2023/07/26 10:25:32;;;;;;;11.02;3.72;;;22.20;99.90;;;;;;5158566;27;20018;-57
2023/07/26 10:27:58;;;;;;;11.25;3.03;;;22.40;99.90;;;;;;5158630;27;20023;-57
2023/07/26 10:30:24;;;;;;;7.07;3.30;;;22.40;99.90;;;;;;5158335;27;20114;-58
2023/07/26 10:32:51;;;;;;;5.93;2.97;;;22.30;99.90;;;;;;5158188;27;20376;-57
2023/07/26 10:35:34;;;;;;;9.88;4.28;;;22.30;99.90;;;;;;5158042;27;20110;-57
2023/07/26 10:38:04;;;;;;;9.38;3.58;;;22.20;99.90;;;;;;5158289;27;20019;-57
2023/07/26 10:40:37;;;;;;;13.60;3.33;;;22.20;99.90;;;;;;5158197;27;20026;-57
2023/07/26 10:43:39;;;;;;;4.60;2.70;;;22.30;99.90;;;;;;5158205;27;20023;-57
2023/07/26 10:46:10;;;;;;;6.28;3.28;;;22.10;99.90;;;;;;5095459;27;20038;-57
2023/07/26 10:48:40;;;;;;;5.90;2.92;;;22.10;99.90;;;;;;5137257;27;20035;-57
2023/07/26 10:51:31;;;;;;;7.43;3.53;;;22.10;99.90;;;;;;5137621;27;20063;-57
2023/07/26 10:54:04;;;;;;;8.63;4.25;;;22.10;99.90;;;;;;5137547;27;20371;-57
2023/07/26 10:56:32;;;;;;;11.05;4.97;;;22.00;99.90;;;;;;5137164;27;20031;-57
2023/07/26 10:59:18;;;;;;;9.25;4.85;;;22.00;99.90;;;;;;5137024;27;20023;-57
2023/07/26 11:01:44;;;;;;;14.20;6.00;;;21.90;99.90;;;;;;5136495;27;20031;-57
2023/07/26 11:04:15;;;;;;;10.60;4.80;;;21.60;99.90;;;;;;5137162;27;20031;-57
2023/07/26 11:07:00;;;;;;;;;;;21.70;99.90;;;;;;5137698;27;20532;-57
2023/07/26 11:09:29;;;;;;;5.68;2.60;;;21.70;99.90;;;;;;5136982;27;19960;-57
2023/07/26 11:11:56;;;;;;;8.38;3.53;;;21.80;99.90;;;;;;5134587;27;20027;-57
2023/07/26 11:14:24;;;;;;;14.27;3.78;;;21.50;99.90;;;;;;5136959;27;20033;-57
2023/07/26 11:16:51;;;;;;;7.95;3.45;;;21.40;99.90;;;;;;5136738;27;20019;-57
2023/07/26 11:19:16;;;;;;;5.35;2.72;;;21.50;99.90;;;;;;5136123;27;20028;-57
2023/07/26 11:21:43;;;;;;;13.82;3.50;;;21.50;99.90;;;;;;5146702;27;20019;-57
2023/07/26 11:24:09;;;;;;;10.35;3.70;;;21.20;99.90;;;;;;5158010;27;20050;-58
2023/07/26 11:26:50;;;;;;;10.80;4.15;;;21.30;99.90;;;;;;5157885;27;20069;-58
2023/07/26 11:29:23;;;;;;;;;;;21.30;99.90;;;;;;5158655;27;20502;-58
2023/07/26 11:31:52;;;;;;;9.35;3.22;;;21.20;99.90;;;;;;5157810;27;19918;-58
2023/07/26 11:34:22;;;;;;;6.20;2.30;;;21.20;99.90;;;;;;5157769;27;20018;-58
2023/07/26 11:36:48;;;;;;;9.05;2.90;;;21.10;99.90;;;;;;5157762;27;20030;-58
2023/07/26 11:39:27;;;;;;;12.23;3.78;;;21.00;99.90;;;;;;5157144;27;20375;-58
2023/07/26 11:41:53;;;;;;;6.78;3.28;;;21.00;99.90;;;;;;5156841;27;20105;-58
2023/07/26 11:44:22;;;;;;;7.18;2.55;;;20.70;99.90;;;;;;5157590;27;20053;-67
2023/07/26 11:46:49;;;;;;;9.65;2.92;;;20.70;99.90;;;;;;5156828;27;20034;-67
2023/07/26 11:49:20;;;;;;;8.63;2.78;;;20.60;99.90;;;;;;5157007;27;20044;-67
2023/07/26 11:51:48;;;;;;;17.42;3.03;;;20.60;99.90;;;;;;5157072;27;20023;-67
2023/07/26 11:54:15;;;;;;;7.65;3.50;;;20.60;99.90;;;;;;5156707;27;20035;-67
2023/07/26 11:56:45;;;;;;;7.18;3.20;;;20.50;99.90;;;;;;5138055;27;20467;-67
2023/07/26 11:59:12;;;;;;;6.65;2.90;;;20.60;99.90;;;;;;5156735;27;20504;-67
2023/07/26 12:01:39;;;;;;;7.57;4.15;;;20.60;99.90;;;;;;5155973;27;20071;-67
2023/07/26 12:04:16;;;;;;;10.95;2.97;;;20.60;99.90;;;;;;5156625;27;20329;-67
2023/07/26 12:06:44;;;;;;;5.43;2.80;;;20.60;99.90;;;;;;5156543;27;20536;-67
2023/07/26 12:09:11;;;;;;;9.32;3.95;;;20.60;99.90;;;;;;5155982;27;20026;-67
2023/07/26 12:11:39;;;;;;;8.25;4.93;;;20.60;99.90;;;;;;5145634;27;20110;-67
2023/07/26 12:14:05;;;;;;;8.20;2.83;;;20.50;99.90;;;;;;5135772;27;20114;-67
2023/07/26 12:16:31;;;;;;;10.70;3.55;;;20.50;99.90;;;;;;5135313;27;20568;-65
2023/07/26 12:19:00;;;;;;;7.03;2.45;;;20.40;99.90;;;;;;5135801;27;20072;-65
2023/07/26 12:21:29;;;;;;;4.50;1.80;;;20.40;99.90;;;;;;5141605;27;20031;-65
2023/07/26 12:24:06;;;;;;;4.25;2.40;;;20.50;99.90;;;;;;5155834;27;20046;-65
2023/07/26 12:26:35;;;;;;;7.95;3.33;;;20.30;99.90;;;;;;5153880;27;20023;-66
2023/07/26 12:29:03;;;;;;;7.30;2.30;;;20.20;99.90;;;;;;5133290;27;20059;-66
2023/07/26 12:31:32;;;;;;;5.97;2.03;;;20.40;99.90;;;;;;5134044;27;20361;-66
2023/07/26 12:34:06;;;;;;;6.90;2.38;;;20.20;99.90;;;;;;5133996;27;20114;-66
2023/07/26 12:36:45;;;;;;;8.93;3.10;;;20.30;99.90;;;;;;5132474;27;20081;-66
2023/07/26 12:39:18;;;;;;;27.17;6.95;;;20.30;99.90;;;;;;5113718;27;20472;-66
2023/07/26 12:41:46;;;;;;;5.72;2.40;;;20.00;99.90;;;;;;5133751;27;20015;-66
2023/07/26 12:44:17;;;;;;;5.30;2.90;;;20.10;99.90;;;;;;5134545;27;20027;-66
2023/07/26 12:46:44;;;;;;;3.95;2.45;;;20.20;99.90;;;;;;5135268;27;20164;-66